Anatife — FGE8389 — position and weather

sailwx.info

Track history (hours):
 
Tides and Currents Weather Stations Pressure Air Temp Water Temp Dewpoint Dewpoint Depression Visibility Wind Speed Wind Dir Waves Ship Positions

Anatife

Last reported at 2014-Nov-06 11:09 UTC. Time now 2014-Nov-23 23:55 UTC.
Position N 47°18' W 002°05'.
Warning: this ship's position is 17 days out of date.

Length 41 m; draft 2 m.

Type: Tanker. MMSI: 227681520.

Date/timePositionNaut miles runAvg speedWind from/ knotsBaromVisibWave heightAir tempDewpointWater temp
2014-Nov-06 11:09N 47°18' W 002°05'0 0.6
2014-Nov-06 10:33N 47°18' W 002°05'  
2014-Oct-29 07:27N 47°18' W 002°05'0 0.0
2014-Oct-29 06:33N 47°18' W 002°05'0 0.0
2014-Oct-29 05:33N 47°18' W 002°05'0 0.0
2014-Oct-29 04:33N 47°18' W 002°05'0 0.0
2014-Oct-29 03:33N 47°18' W 002°05'0 0.0
2014-Oct-29 02:32N 47°18' W 002°05'0 0.0
2014-Oct-29 01:33N 47°18' W 002°05'0 0.0
2014-Oct-29 00:33N 47°18' W 002°05'0 0.0
2014-Oct-28 23:33N 47°18' W 002°05'0 0.0
2014-Oct-28 22:33N 47°18' W 002°05'2 1.6
2014-Oct-28 21:07N 47°18' W 002°08'5 9.0
2014-Oct-28 20:31N 47°14' W 002°15'12 9.4
2014-Oct-28 19:12N 47°14' W 002°33'25 1.8
2014-Oct-28 05:33N 47°21' W 003°08'36 8.9
2014-Oct-28 01:33N 47°13' W 002°17'  
Track history (hours):
 
Tides and Currents Weather Stations Pressure Air Temp Water Temp Dewpoint Dewpoint Depression Visibility Wind Speed Wind Dir Waves Ship Positions

Anatife

Last reported at 2014-Nov-06 11:09 UTC. Time now 2014-Nov-23 23:55 UTC.
Position N 47°18' W 002°05'.
Warning: this ship's position is 17 days out of date.

Length 41 m; draft 2 m.

Type: Tanker. MMSI: 227681520.

Date/timePositionNaut miles runAvg speedWind from/ knotsBaromVisibWave heightAir tempDewpointWater temp
2014-Nov-06 11:09N 47°18' W 002°05'0 0.6
2014-Nov-06 10:33N 47°18' W 002°05'  
2014-Oct-29 07:27N 47°18' W 002°05'0 0.0
2014-Oct-29 06:33N 47°18' W 002°05'0 0.0
2014-Oct-29 05:33N 47°18' W 002°05'0 0.0
2014-Oct-29 04:33N 47°18' W 002°05'0 0.0
2014-Oct-29 03:33N 47°18' W 002°05'0 0.0
2014-Oct-29 02:32N 47°18' W 002°05'0 0.0
2014-Oct-29 01:33N 47°18' W 002°05'0 0.0
2014-Oct-29 00:33N 47°18' W 002°05'0 0.0
2014-Oct-28 23:33N 47°18' W 002°05'0 0.0
2014-Oct-28 22:33N 47°18' W 002°05'2 1.6
2014-Oct-28 21:07N 47°18' W 002°08'5 9.0
2014-Oct-28 20:31N 47°14' W 002°15'12 9.4
2014-Oct-28 19:12N 47°14' W 002°33'25 1.8
2014-Oct-28 05:33N 47°21' W 003°08'36 8.9
2014-Oct-28 01:33N 47°13' W 002°17'  

Dump ship's entire track history